Time;durP1;ratioP1;P1;durP2;ratioP2;P2;SDS_P1;SDS_P2;PMS_P1;PMS_P2;Temp;Humidity;BMP_temperature;BMP_pressure;BME280_temperature;BME280_humidity;BME280_pressure;Samples;Min_cycle;Max_cycle;Signal;HPM_P1;HPM_P2
2021/08/10 00:03:47;;;;;;;5.67;2.43;;;;;;;19.78;56.95;98232.38;8384520;28;20239;-84
2021/08/10 00:07:49;;;;;;;5.77;2.50;;;;;;;19.81;56.88;98227.72;8384951;28;20199;-85
2021/08/10 00:11:52;;;;;;;4.67;2.07;;;;;;;19.77;57.04;98218.41;8384642;28;20199;-85
2021/08/10 00:15:55;;;;;;;4.03;2.47;;;;;;;19.70;56.82;98212.78;8384625;28;20406;-85
2021/08/10 00:20:00;;;;;;;6.50;2.40;;;;;;;19.49;57.32;98220.50;8384204;28;20200;-85
2021/08/10 00:24:05;;;;;;;5.57;2.27;;;;;;;19.63;57.05;98223.88;8384195;28;20592;-85
2021/08/10 00:28:08;;;;;;;5.20;2.33;;;;;;;19.60;57.59;98219.69;8384026;28;20200;-85
2021/08/10 00:32:11;;;;;;;5.83;2.63;;;;;;;19.63;57.28;98216.84;8383999;28;20200;-85
2021/08/10 00:36:15;;;;;;;4.67;2.20;;;;;;;19.57;57.41;98209.41;8383762;28;20243;-85
2021/08/10 00:40:19;;;;;;;4.93;2.30;;;;;;;19.53;57.53;98218.50;8384025;28;20506;-85
2021/08/10 00:44:22;;;;;;;4.00;2.03;;;;;;;19.48;57.45;98215.41;8383618;28;20234;-85
2021/08/10 00:48:25;;;;;;;6.20;2.13;;;;;;;19.42;57.22;98213.22;8383263;28;20200;-85
2021/08/10 00:52:29;;;;;;;3.03;2.17;;;;;;;19.41;57.47;98214.19;8383225;28;20382;-85
2021/08/10 00:56:32;;;;;;;4.13;1.87;;;;;;;19.36;57.34;98205.81;8383031;28;20213;-85
2021/08/10 01:00:35;;;;;;;2.80;2.20;;;;;;;19.30;57.14;98209.75;8383468;28;20200;-85
2021/08/10 01:04:38;;;;;;;4.27;2.20;;;;;;;19.32;56.95;98195.56;8382929;28;20232;-85
2021/08/10 01:08:49;;;;;;;4.20;2.37;;;;;;;19.28;56.93;98199.38;8383072;28;20212;-84
2021/08/10 01:12:59;;;;;;;3.70;2.23;;;;;;;19.27;57.56;98200.34;8383019;28;20211;-86
2021/08/10 01:17:04;;;;;;;5.80;2.07;;;;;;;19.27;57.34;98204.75;8383018;28;20211;-85
2021/08/10 01:21:20;;;;;;;3.97;2.30;;;;;;;19.24;57.50;98208.44;8382928;28;20270;-86
2021/08/10 01:25:33;;;;;;;3.33;2.17;;;;;;;19.18;57.21;98198.41;8382740;28;20250;-85
2021/08/10 01:29:39;;;;;;;3.53;2.20;;;;;;;19.06;57.46;98205.41;8382883;28;20203;-85
2021/08/10 01:33:46;;;;;;;5.90;2.17;;;;;;;19.08;57.98;98211.38;8383072;28;20389;-85
2021/08/10 01:37:51;;;;;;;4.93;2.40;;;;;;;19.10;57.26;98211.28;8382585;28;20244;-85
2021/08/10 01:41:55;;;;;;;4.90;2.27;;;;;;;18.99;57.65;98206.81;8383012;28;20200;-85
2021/08/10 01:45:59;;;;;;;4.60;2.20;;;;;;;18.97;57.70;98190.38;8382692;28;20408;-85
2021/08/10 01:50:05;;;;;;;5.13;2.40;;;;;;;19.03;57.49;98195.13;8382579;28;20200;-85
2021/08/10 01:54:09;;;;;;;6.47;2.30;;;;;;;19.02;57.42;98196.13;8382406;28;20204;-84
2021/08/10 01:58:13;;;;;;;6.73;2.23;;;;;;;18.92;57.70;98197.72;8382277;28;20204;-85
2021/08/10 02:02:16;;;;;;;5.10;2.50;;;;;;;18.92;57.60;98188.09;8384789;28;20200;-85
2021/08/10 02:06:21;;;;;;;4.90;2.47;;;;;;;18.93;57.61;98188.94;8388410;28;20234;-85
2021/08/10 02:10:23;;;;;;;6.10;2.30;;;;;;;18.86;57.77;98193.78;8388425;28;20203;-85
2021/08/10 02:14:27;;;;;;;4.60;2.30;;;;;;;18.85;57.63;98188.63;8388543;28;20214;-85
2021/08/10 02:18:30;;;;;;;3.40;2.10;;;;;;;18.74;57.57;98181.56;8388335;28;20240;-84
2021/08/10 02:22:34;;;;;;;3.77;2.20;;;;;;;18.75;57.77;98178.81;8387994;28;20199;-85
2021/08/10 02:26:51;;;;;;;4.77;1.97;;;;;;;18.74;57.28;98178.94;8387768;28;20511;-85
2021/08/10 02:30:57;;;;;;;6.70;2.50;;;;;;;18.70;58.07;98170.47;8387682;28;20206;-84
2021/08/10 02:35:01;;;;;;;5.47;2.70;;;;;;;18.61;58.35;98168.50;8387311;28;20207;-84
2021/08/10 02:39:07;;;;;;;5.57;2.73;;;;;;;18.53;58.31;98163.84;8387591;28;20199;-84
2021/08/10 02:43:10;;;;;;;3.90;2.67;;;;;;;18.54;59.15;98162.03;8387263;28;20207;-84
2021/08/10 02:47:13;;;;;;;5.97;2.80;;;;;;;18.56;58.39;98163.63;8387184;28;20224;-84
2021/08/10 02:51:16;;;;;;;3.77;2.17;;;;;;;18.59;58.20;98169.59;8387056;28;20207;-85
2021/08/10 02:55:21;;;;;;;3.30;2.13;;;;;;;18.59;57.75;98167.78;8386993;28;20376;-85
2021/08/10 02:59:26;;;;;;;4.80;2.50;;;;;;;18.61;58.01;98165.88;8386773;28;20206;-84
2021/08/10 03:03:32;;;;;;;5.17;2.50;;;;;;;18.55;57.80;98167.19;8387410;28;20204;-84
2021/08/10 03:07:36;;;;;;;4.23;2.30;;;;;;;18.51;58.24;98168.34;8386531;28;20577;-85
2021/08/10 03:11:42;;;;;;;5.47;2.50;;;;;;;18.52;58.34;98166.56;8386240;28;20199;-84
2021/08/10 03:15:46;;;;;;;5.40;2.33;;;;;;;18.42;58.77;98155.91;8386367;28;20209;-84
2021/08/10 03:19:49;;;;;;;5.77;2.97;;;;;;;18.45;58.81;98162.72;8386309;28;20203;-84
2021/08/10 03:23:54;;;;;;;6.47;2.47;;;;;;;18.36;59.22;98161.63;8386075;28;20204;-84
2021/08/10 03:27:59;;;;;;;6.37;3.10;;;;;;;18.30;59.36;98152.41;8385931;28;20552;-84
2021/08/10 03:32:03;;;;;;;3.73;2.43;;;;;;;18.32;59.21;98152.31;8386142;28;20200;-83
2021/08/10 03:36:06;;;;;;;7.23;3.00;;;;;;;18.08;60.15;98154.91;8385854;28;20641;-84
2021/08/10 03:40:10;;;;;;;7.07;2.83;;;;;;;18.17;59.94;98162.94;8385505;28;20203;-84
2021/08/10 03:44:16;;;;;;;4.73;2.70;;;;;;;18.29;59.23;98152.53;8385419;28;20208;-84
2021/08/10 03:48:19;;;;;;;5.67;3.20;;;;;;;18.06;60.33;98154.19;8385453;28;20410;-84
2021/08/10 03:52:22;;;;;;;5.67;3.07;;;;;;;18.06;59.96;98152.41;8385128;28;20200;-84
2021/08/10 03:56:27;;;;;;;8.30;3.60;;;;;;;18.01;60.38;98159.78;8385393;28;20393;-84
2021/08/10 04:00:35;;;;;;;7.30;3.10;;;;;;;18.07;60.63;98148.03;8385194;28;20226;-84
2021/08/10 04:04:39;;;;;;;7.13;3.00;;;;;;;18.08;60.12;98144.44;8384921;28;20234;-84
2021/08/10 04:08:42;;;;;;;4.40;3.10;;;;;;;18.14;59.87;98136.97;8384424;28;20266;-84
2021/08/10 04:12:45;;;;;;;4.93;2.70;;;;;;;18.21;59.95;98128.66;8384713;28;20234;-85
2021/08/10 04:16:53;;;;;;;6.33;3.43;;;;;;;17.90;60.65;98121.25;8384639;28;20204;-85
2021/08/10 04:20:56;;;;;;;6.77;3.53;;;;;;;17.87;60.73;98136.34;8384659;28;20206;-85
2021/08/10 04:24:59;;;;;;;11.43;3.70;;;;;;;18.01;60.17;98137.97;8383396;28;20560;-85
2021/08/10 04:29:02;;;;;;;6.17;3.70;;;;;;;17.55;61.55;98136.78;8384153;28;20200;-85
2021/08/10 04:33:07;;;;;;;4.73;3.07;;;;;;;17.81;61.17;98137.56;8384242;28;20210;-85
2021/08/10 04:37:10;;;;;;;4.23;3.23;;;;;;;17.71;61.65;98144.41;8383914;28;20235;-85
2021/08/10 04:41:12;;;;;;;4.73;3.30;;;;;;;17.94;60.57;98143.66;8385645;28;20206;-85
2021/08/10 04:45:15;;;;;;;5.73;3.53;;;;;;;17.86;60.80;98152.97;8383562;28;20238;-85
2021/08/10 04:49:19;;;;;;;4.60;3.67;;;;;;;17.81;61.21;98149.84;8383689;28;20208;-85
2021/08/10 04:53:22;;;;;;;9.97;3.33;;;;;;;18.12;60.37;98159.81;8383740;28;20199;-85
2021/08/10 04:57:25;;;;;;;5.47;3.60;;;;;;;18.15;60.27;98158.78;8383457;28;20208;-85
2021/08/10 05:01:28;;;;;;;3.83;3.10;;;;;;;18.16;59.96;98155.19;8383520;28;20491;-84
2021/08/10 05:05:33;;;;;;;8.93;3.80;;;;;;;18.19;59.96;98159.41;8383080;28;20250;-85
2021/08/10 05:09:36;;;;;;;5.87;3.87;;;;;;;18.23;59.77;98164.28;8383315;28;20222;-85
2021/08/10 05:13:39;;;;;;;6.80;3.80;;;;;;;18.31;59.55;98161.94;8383131;28;20203;-85
2021/08/10 05:17:42;;;;;;;7.10;3.90;;;;;;;18.35;59.87;98170.41;8383087;28;20208;-85
2021/08/10 05:21:46;;;;;;;6.73;4.23;;;;;;;17.93;61.05;98168.19;8383043;28;20210;-85
2021/08/10 05:25:49;;;;;;;7.97;3.60;;;;;;;18.21;60.72;98165.34;8383005;28;20224;-85
2021/08/10 05:29:52;;;;;;;5.37;3.80;;;;;;;18.08;61.02;98165.41;8382749;28;20207;-85
2021/08/10 05:33:54;;;;;;;9.47;4.20;;;;;;;17.61;62.36;98166.94;8382832;28;20484;-84
2021/08/10 05:37:59;;;;;;;11.47;4.87;;;;;;;17.88;62.18;98157.19;8388067;28;20231;-85
2021/08/10 05:42:01;;;;;;;6.57;4.17;;;;;;;17.77;62.26;98154.47;8389386;28;20204;-85
2021/08/10 05:46:04;;;;;;;4.63;3.60;;;;;;;18.09;61.32;98172.31;8389116;28;20238;-85
2021/08/10 05:50:09;;;;;;;5.10;3.60;;;;;;;18.27;61.16;98165.72;8389218;28;20206;-84
2021/08/10 05:54:14;;;;;;;8.37;4.27;;;;;;;18.21;60.71;98167.97;8388796;28;20199;-85
2021/08/10 05:58:16;;;;;;;4.70;3.80;;;;;;;18.16;61.12;98169.16;8388733;28;20203;-84
2021/08/10 06:02:19;;;;;;;7.03;4.27;;;;;;;17.98;61.94;98168.66;8388812;28;20203;-84
2021/08/10 06:06:22;;;;;;;9.37;4.40;;;;;;;18.52;60.70;98162.19;8388453;28;20236;-84
2021/08/10 06:10:27;;;;;;;9.13;4.17;;;;;;;18.38;61.39;98162.34;8388423;28;20200;-84
2021/08/10 06:14:31;;;;;;;6.93;4.20;;;;;;;18.40;61.78;98160.44;8388457;28;20204;-85
2021/08/10 06:18:34;;;;;;;5.33;4.30;;;;;;;18.40;61.88;98162.22;8388233;28;20210;-84
2021/08/10 06:22:37;;;;;;;7.73;4.47;;;;;;;18.78;60.92;98163.81;8388087;28;20223;-85
2021/08/10 06:26:41;;;;;;;7.40;4.80;;;;;;;18.63;60.91;98174.47;8387956;28;20223;-85
2021/08/10 06:30:45;;;;;;;9.23;4.83;;;;;;;18.81;60.54;98176.72;8387968;28;20518;-85
2021/08/10 06:34:47;;;;;;;9.30;5.30;;;;;;;18.88;60.25;98178.75;8387651;28;20203;-83
2021/08/10 06:38:50;;;;;;;6.27;4.20;;;;;;;18.94;60.31;98167.81;8387610;28;20210;-85
2021/08/10 06:42:55;;;;;;;10.13;4.40;;;;;;;18.82;60.81;98167.91;8387546;28;20204;-84
2021/08/10 06:46:57;;;;;;;8.23;4.00;;;;;;;19.28;60.03;98173.09;8386504;28;20535;-84
2021/08/10 06:51:01;;;;;;;8.13;4.07;;;;;;;19.45;59.41;98186.75;8387257;28;20386;-84
2021/08/10 06:55:05;;;;;;;7.40;4.00;;;;;;;19.61;59.06;98179.34;8387060;28;20499;-84
2021/08/10 06:59:09;;;;;;;9.47;4.23;;;;;;;19.80;58.75;98185.81;8386922;28;20211;-84
2021/08/10 07:03:12;;;;;;;7.13;4.33;;;;;;;20.08;57.78;98185.28;8386872;28;20487;-84
2021/08/10 07:07:15;;;;;;;7.80;4.00;;;;;;;20.63;56.91;98184.44;8386583;28;20247;-84
2021/08/10 07:11:18;;;;;;;8.80;4.43;;;;;;;20.70;56.05;98168.03;8386496;28;20205;-84
2021/08/10 07:15:22;;;;;;;6.33;3.97;;;;;;;20.43;57.69;98157.13;8386527;28;20357;-85
2021/08/10 07:19:25;;;;;;;5.83;3.87;;;;;;;20.21;57.45;98150.97;8386411;28;20510;-84
2021/08/10 07:23:28;;;;;;;8.27;4.23;;;;;;;20.16;57.51;98142.59;8386214;28;20390;-84
2021/08/10 07:27:31;;;;;;;6.43;4.30;;;;;;;20.37;57.98;98139.19;8385893;28;20269;-85
2021/08/10 07:31:35;;;;;;;6.17;3.90;;;;;;;20.42;56.83;98137.03;8385817;28;20217;-84
2021/08/10 07:35:38;;;;;;;8.70;3.73;;;;;;;20.88;56.40;98139.31;8385582;28;20239;-84
2021/08/10 07:39:41;;;;;;;8.83;3.67;;;;;;;21.59;53.97;98137.75;8385745;28;20499;-85
2021/08/10 07:43:47;;;;;;;4.77;3.37;;;;;;;21.43;54.88;98135.59;8385704;28;20203;-84
2021/08/10 07:47:52;;;;;;;7.57;3.90;;;;;;;21.56;54.51;98138.03;8385568;28;20230;-84
2021/08/10 07:51:54;;;;;;;7.00;3.97;;;;;;;21.87;53.73;98152.00;8385156;28;20207;-84
2021/08/10 07:55:57;;;;;;;5.50;3.00;;;;;;;22.09;53.13;98142.22;8384911;28;20202;-83
2021/08/10 08:00:00;;;;;;;6.60;3.20;;;;;;;22.35;51.88;98135.47;8384831;28;20215;-84
2021/08/10 08:04:04;;;;;;;5.53;3.10;;;;;;;22.40;51.22;98135.03;8384578;28;20220;-84
2021/08/10 08:08:08;;;;;;;8.60;3.50;;;;;;;22.92;50.49;98129.44;8384730;28;20409;-84
2021/08/10 08:12:10;;;;;;;4.57;2.97;;;;;;;23.29;49.06;98124.22;8384559;28;20211;-84
2021/08/10 08:16:13;;;;;;;6.83;2.87;;;;;;;23.61;48.48;98107.13;8384361;28;20396;-84
2021/08/10 08:20:18;;;;;;;6.73;2.77;;;;;;;23.80;48.06;98112.31;8384588;28;20391;-84
2021/08/10 08:24:21;;;;;;;6.23;2.87;;;;;;;23.84;47.76;98107.56;8384324;28;20391;-84
2021/08/10 08:28:25;;;;;;;8.17;2.73;;;;;;;24.40;46.46;98103.81;8383974;28;20227;-85
2021/08/10 08:32:28;;;;;;;4.80;2.27;;;;;;;24.42;46.59;98108.94;8383798;28;20201;-84
2021/08/10 08:36:32;;;;;;;6.87;2.80;;;;;;;24.87;45.85;98097.41;8383706;28;20241;-85
2021/08/10 08:40:37;;;;;;;3.90;2.37;;;;;;;25.37;45.05;98101.19;8384203;28;20201;-84
2021/08/10 08:44:40;;;;;;;3.80;2.37;;;;;;;25.44;44.16;98091.63;8383564;28;20202;-85
2021/08/10 08:48:43;;;;;;;6.27;2.03;;;;;;;25.55;42.29;98101.09;8383531;28;20239;-84
2021/08/10 08:52:52;;;;;;;4.93;2.30;;;;;;;25.90;40.52;98102.72;8383351;28;20222;-86
2021/08/10 08:56:55;;;;;;;3.83;2.07;;;;;;;26.04;40.29;98095.97;8383501;28;20204;-84
2021/08/10 09:00:58;;;;;;;4.20;1.87;;;;;;;26.49;38.92;98097.34;8383246;28;20210;-87
2021/08/10 09:05:01;;;;;;;5.47;1.90;;;;;;;26.88;40.18;98094.03;8383331;28;20222;-83
2021/08/10 09:09:22;;;;;;;3.17;1.70;;;;;;;26.78;38.41;98111.97;8383189;28;20230;-83
2021/08/10 09:13:26;;;;;;;4.60;2.00;;;;;;;26.57;37.41;98117.75;8382803;28;20203;-85
2021/08/10 09:17:29;;;;;;;4.80;2.00;;;;;;;25.94;38.45;98117.34;8383299;28;20205;-90
2021/08/10 09:21:33;;;;;;;5.30;1.70;;;;;;;26.44;38.23;98133.34;8382767;28;20207;-83
2021/08/10 09:25:38;;;;;;;3.30;1.70;;;;;;;25.73;37.88;98123.03;8382983;28;20222;-85
2021/08/10 09:29:46;;;;;;;4.07;1.80;;;;;;;26.43;37.57;98126.38;8382571;28;20237;-83
2021/08/10 09:33:48;;;;;;;2.83;1.80;;;;;;;27.39;37.21;98120.31;8382585;28;20200;-84
2021/08/10 09:38:06;;;;;;;3.00;1.80;;;;;;;27.26;37.56;98117.38;8382189;28;20232;-84
2021/08/10 09:42:13;;;;;;;3.20;1.47;;;;;;;26.89;38.71;98121.41;8382696;28;20204;-84
2021/08/10 09:46:17;;;;;;;4.43;1.67;;;;;;;26.47;38.28;98123.22;8382779;28;20201;-84
2021/08/10 09:50:23;;;;;;;4.40;1.87;;;;;;;26.07;39.66;98127.50;8382262;28;20331;-86
2021/08/10 09:54:29;;;;;;;4.47;2.03;;;;;;;25.80;40.72;98133.00;8382819;28;20201;-86
2021/08/10 09:58:57;;;;;;;6.07;2.30;;;;;;;25.76;40.47;98137.81;8382294;28;20226;-84
2021/08/10 10:03:15;;;;;;;4.80;1.80;;;;;;;25.67;40.32;98126.34;8382107;28;20209;-85
2021/08/10 10:07:18;;;;;;;4.67;2.00;;;;;;;26.33;39.83;98135.34;8381865;28;20241;-84
2021/08/10 10:11:21;;;;;;;6.67;2.30;;;;;;;25.94;40.59;98137.75;8381931;28;20209;-84
2021/08/10 10:15:26;;;;;;;4.50;2.20;;;;;;;25.58;42.67;98142.38;8382148;28;20355;-83
2021/08/10 10:19:29;;;;;;;5.83;2.33;;;;;;;25.34;44.39;98147.41;8381697;28;20229;-83
2021/08/10 10:23:33;;;;;;;5.70;2.00;;;;;;;25.28;44.25;98142.72;8384303;28;20525;-84
2021/08/10 10:27:36;;;;;;;4.07;2.10;;;;;;;25.18;44.09;98147.28;8387494;28;20225;-84
2021/08/10 10:31:41;;;;;;;8.47;1.97;;;;;;;25.34;44.56;98149.22;8387369;28;20201;-84
2021/08/10 10:35:46;;;;;;;5.50;1.77;;;;;;;25.52;43.56;98149.97;8387153;28;20401;-84
2021/08/10 10:39:50;;;;;;;4.33;2.27;;;;;;;25.61;44.31;98145.56;8387063;28;20219;-84
2021/08/10 10:43:53;;;;;;;4.10;1.90;;;;;;;25.79;44.47;98137.50;8387142;28;20208;-83
2021/08/10 10:47:58;;;;;;;3.90;1.80;;;;;;;26.05;43.44;98142.75;8386688;28;20229;-84
2021/08/10 10:52:09;;;;;;;4.73;2.10;;;;;;;25.99;43.62;98142.53;8386431;28;20204;-84
2021/08/10 10:56:32;;;;;;;4.63;2.10;;;;;;;25.95;43.58;98142.06;8386798;28;20291;-84
2021/08/10 11:00:35;;;;;;;3.70;1.97;;;;;;;26.06;43.02;98144.38;8386754;28;20577;-84
2021/08/10 11:05:21;;;;;;;2.93;1.80;;;;;;;26.03;42.37;98143.91;8386307;28;20226;-84
2021/08/10 11:10:00;;;;;;;3.70;1.87;;;;;;;26.42;40.50;98143.28;8386361;28;20536;-88
2021/08/10 11:14:03;;;;;;;5.97;2.30;;;;;;;27.51;39.38;98131.41;8386428;28;20203;-82
2021/08/10 11:18:30;;;;;;;3.33;1.93;;;;;;;27.95;38.62;98135.41;8386359;28;20210;-83
2021/08/10 11:22:34;;;;;;;5.53;2.10;;;;;;;27.40;38.40;98122.00;8371209;28;20215;-85
2021/08/10 11:26:39;;;;;;;2.60;1.70;;;;;;;27.92;37.49;98125.94;8385775;28;20315;-84
2021/08/10 11:30:47;;;;;;;6.07;1.67;;;;;;;28.56;36.37;98132.88;8385635;28;20524;-84
2021/08/10 11:34:50;;;;;;;3.87;2.00;;;;;;;28.82;35.85;98116.50;8384838;28;20431;-84
2021/08/10 11:39:10;;;;;;;3.37;2.00;;;;;;;29.02;34.32;98108.81;8385094;28;20206;-86
2021/08/10 11:43:13;;;;;;;3.93;1.80;;;;;;;29.30;34.62;98113.53;8384864;28;20206;-84
2021/08/10 11:47:16;;;;;;;2.87;1.60;;;;;;;29.03;35.08;98110.47;8384904;28;20203;-85
2021/08/10 11:51:20;;;;;;;4.53;1.93;;;;;;;27.58;38.25;98102.31;8384976;28;20201;-84
2021/08/10 11:55:30;;;;;;;5.23;1.90;;;;;;;27.94;37.42;98117.78;8384626;28;20212;-84
2021/08/10 11:59:33;;;;;;;4.67;1.80;;;;;;;28.71;35.91;98119.59;8384352;28;20230;-84
2021/08/10 12:03:36;;;;;;;6.47;2.10;;;;;;;28.78;35.11;98116.03;8384290;28;20241;-83
2021/08/10 12:07:48;;;;;;;3.43;1.93;;;;;;;29.25;34.19;98103.44;8384012;28;20226;-83
2021/08/10 12:11:54;;;;;;;4.17;1.90;;;;;;;29.28;34.47;98107.56;8384483;28;20203;-84
2021/08/10 12:15:57;;;;;;;5.03;2.27;;;;;;;29.47;34.46;98108.84;8383822;28;20210;-84
2021/08/10 12:20:00;;;;;;;4.03;2.07;;;;;;;29.30;32.64;98109.06;8383866;28;20204;-84
2021/08/10 12:24:03;;;;;;;3.60;2.00;;;;;;;29.34;33.19;98110.34;8384133;28;20204;-84
2021/08/10 12:28:10;;;;;;;5.77;2.13;;;;;;;29.16;33.69;98105.34;8383608;28;20538;-84
2021/08/10 12:32:22;;;;;;;7.07;2.43;;;;;;;29.08;34.66;98093.94;8383633;28;20217;-84
2021/08/10 12:36:26;;;;;;;3.90;2.30;;;;;;;28.58;34.84;98094.41;8383633;28;20239;-86
2021/08/10 12:40:29;;;;;;;2.70;2.13;;;;;;;27.81;36.57;98105.84;8383206;28;20207;-84
2021/08/10 12:44:33;;;;;;;4.70;2.50;;;;;;;27.75;35.60;98106.53;8382704;28;20207;-84
2021/08/10 12:48:36;;;;;;;4.30;2.20;;;;;;;28.46;35.82;98107.28;8382614;28;20224;-87
2021/08/10 12:52:40;;;;;;;3.73;2.50;;;;;;;28.54;34.31;98103.75;8383044;28;20362;-84
2021/08/10 12:56:43;;;;;;;5.43;2.67;;;;;;;28.01;34.34;98094.81;8382894;28;20214;-85
2021/08/10 13:00:58;;;;;;;3.83;2.67;;;;;;;27.82;35.34;98093.38;8382740;28;20209;-84
2021/08/10 13:05:02;;;;;;;3.70;2.40;;;;;;;28.04;35.36;98091.78;8382613;28;20223;-84
2021/08/10 13:09:07;;;;;;;5.40;2.80;;;;;;;28.17;35.08;98088.53;8382507;28;20231;-84
2021/08/10 13:13:11;;;;;;;4.03;2.40;;;;;;;28.81;35.09;98083.69;8382529;28;20286;-85
2021/08/10 13:17:39;;;;;;;4.13;2.53;;;;;;;28.54;35.99;98085.13;8382275;28;20228;-84
2021/08/10 13:21:47;;;;;;;3.90;2.40;;;;;;;28.62;34.89;98084.22;8382355;28;20206;-85
2021/08/10 13:25:55;;;;;;;4.13;2.73;;;;;;;28.85;35.35;98073.50;8382204;28;20214;-84
2021/08/10 13:29:58;;;;;;;3.13;2.67;;;;;;;28.03;35.37;98079.47;8382165;28;20242;-84
2021/08/10 13:34:05;;;;;;;3.47;2.60;;;;;;;27.88;35.11;98072.25;8382018;28;20229;-84
2021/08/10 13:38:09;;;;;;;5.67;2.70;;;;;;;28.14;34.64;98067.59;8382136;28;20237;-85
2021/08/10 13:42:12;;;;;;;4.83;2.87;;;;;;;28.33;35.05;98068.94;8382126;28;20210;-86
2021/08/10 13:46:16;;;;;;;6.33;2.93;;;;;;;28.29;33.01;98079.09;8382569;28;20214;-86
2021/08/10 13:50:21;;;;;;;7.83;2.90;;;;;;;28.44;34.04;98058.72;8382683;28;20526;-84
2021/08/10 13:54:24;;;;;;;3.80;2.77;;;;;;;28.55;34.48;98065.44;8382162;28;20207;-85
2021/08/10 13:58:26;;;;;;;4.43;2.90;;;;;;;28.38;33.25;98061.25;8386932;28;20207;-84
2021/08/10 14:02:30;;;;;;;4.40;2.80;;;;;;;28.39;33.70;98054.94;8388999;28;20210;-85
2021/08/10 14:06:34;;;;;;;6.20;2.80;;;;;;;28.69;33.42;98045.16;8388543;28;20222;-84
2021/08/10 14:10:37;;;;;;;5.40;3.07;;;;;;;28.65;32.50;98046.53;8388524;28;20230;-85
2021/08/10 14:14:40;;;;;;;5.57;3.13;;;;;;;28.30;32.91;98043.50;8388712;28;20210;-86
2021/08/10 14:18:43;;;;;;;5.33;2.83;;;;;;;28.95;34.74;98042.06;8388378;28;20555;-84
2021/08/10 14:22:47;;;;;;;5.23;3.00;;;;;;;28.73;32.21;98038.50;8388100;28;20201;-85
2021/08/10 14:26:51;;;;;;;9.30;2.80;;;;;;;28.47;32.39;98031.69;8388154;28;20203;-84
2021/08/10 14:30:53;;;;;;;4.77;2.57;;;;;;;28.68;32.50;98034.72;8387850;28;20230;-84
2021/08/10 14:34:56;;;;;;;5.87;2.97;;;;;;;28.54;32.65;98029.19;8387854;28;20494;-89
2021/08/10 14:39:01;;;;;;;6.33;3.00;;;;;;;28.03;33.36;98034.25;8387896;28;20220;-85
2021/08/10 14:43:04;;;;;;;5.70;3.20;;;;;;;28.27;32.63;98028.72;8387774;28;20202;-86
2021/08/10 14:47:08;;;;;;;6.13;3.13;;;;;;;28.24;33.60;98026.41;8387420;28;20371;-85
2021/08/10 14:51:11;;;;;;;4.43;2.90;;;;;;;27.59;35.18;98025.00;8387247;28;20230;-85
2021/08/10 14:55:15;;;;;;;6.33;3.70;;;;;;;27.28;34.64;98027.66;8387248;28;20209;-85
2021/08/10 14:59:18;;;;;;;3.77;2.90;;;;;;;27.23;34.93;98033.47;8387386;28;20240;-84
2021/08/10 15:03:21;;;;;;;7.63;3.23;;;;;;;27.47;34.82;98029.91;8387018;28;20212;-86
2021/08/10 15:07:24;;;;;;;4.47;3.10;;;;;;;27.91;34.66;98027.66;8387205;28;20313;-85
2021/08/10 15:11:30;;;;;;;9.47;3.97;;;;;;;27.64;33.76;98016.50;8386369;28;20230;-88
2021/08/10 15:15:53;;;;;;;5.03;3.33;;;;;;;27.92;34.90;98018.69;8386701;28;20199;-84
2021/08/10 15:19:56;;;;;;;5.13;3.50;;;;;;;27.93;33.61;98013.19;8386427;28;20209;-84
2021/08/10 15:23:59;;;;;;;5.67;3.60;;;;;;;27.73;32.80;98018.09;8386368;28;20206;-84
2021/08/10 15:28:03;;;;;;;5.47;3.63;;;;;;;27.59;32.65;98009.06;8386031;28;20203;-84
2021/08/10 15:32:07;;;;;;;12.97;10.97;;;;;;;27.54;32.56;98019.38;8385903;28;20234;-84
2021/08/10 15:36:10;;;;;;;74.97;33.10;;;;;;;27.39;32.02;98008.66;8385773;28;20549;-91
2021/08/10 15:40:14;;;;;;;13.27;8.43;;;;;;;27.55;34.28;98009.56;8385960;28;20206;-84
2021/08/10 15:44:18;;;;;;;6.93;5.10;;;;;;;27.27;33.38;98008.22;8386172;28;20524;-85
2021/08/10 15:48:21;;;;;;;6.10;4.73;;;;;;;27.39;34.27;98002.50;8385451;28;20213;-84
2021/08/10 15:52:24;;;;;;;8.13;4.60;;;;;;;27.15;33.64;98003.41;8385602;28;20225;-84
2021/08/10 15:56:27;;;;;;;7.10;3.57;;;;;;;27.22;34.10;98001.72;8385441;28;20209;-84
2021/08/10 16:00:31;;;;;;;6.37;3.80;;;;;;;27.08;33.53;97998.78;8385241;28;20384;-86
2021/08/10 16:04:34;;;;;;;6.80;3.67;;;;;;;27.02;34.45;97996.81;8384740;28;20293;-85
2021/08/10 16:08:37;;;;;;;5.37;3.70;;;;;;;26.91;33.71;97994.53;8384823;28;20311;-85
2021/08/10 16:12:40;;;;;;;6.20;3.80;;;;;;;26.84;33.72;97993.56;8384704;28;20201;-84
2021/08/10 16:16:44;;;;;;;6.97;3.90;;;;;;;26.67;36.19;97992.78;8384718;28;20493;-84
2021/08/10 16:20:47;;;;;;;5.80;3.53;;;;;;;26.70;35.93;97995.94;8383296;28;20206;-85
2021/08/10 16:24:50;;;;;;;5.27;3.33;;;;;;;26.61;35.64;97996.13;8384440;28;20360;-85
2021/08/10 16:28:53;;;;;;;5.53;3.43;;;;;;;26.47;35.71;97993.13;8384267;28;20205;-84
2021/08/10 16:32:57;;;;;;;6.00;3.27;;;;;;;26.39;36.60;97993.16;8383940;28;20204;-84
2021/08/10 16:37:00;;;;;;;6.30;3.50;;;;;;;26.26;36.96;97991.00;8383773;28;20243;-84
2021/08/10 16:41:02;;;;;;;5.53;3.40;;;;;;;26.24;36.96;97990.34;8383811;28;20211;-84
2021/08/10 16:45:06;;;;;;;7.03;3.80;;;;;;;26.26;35.55;97996.31;8383762;28;20200;-85
2021/08/10 16:49:11;;;;;;;5.17;3.70;;;;;;;26.21;35.71;97990.66;8383714;28;20381;-84
2021/08/10 16:53:13;;;;;;;6.03;3.80;;;;;;;26.05;35.73;97986.19;8383530;28;20210;-84
2021/08/10 16:57:17;;;;;;;4.67;3.70;;;;;;;26.01;37.16;97981.38;8383279;28;20205;-84
2021/08/10 17:01:20;;;;;;;6.60;3.90;;;;;;;25.84;36.45;97983.19;8383454;28;20216;-86
2021/08/10 17:05:24;;;;;;;4.97;3.47;;;;;;;25.77;36.19;97984.81;8383132;28;20222;-85
2021/08/10 17:09:27;;;;;;;8.63;3.47;;;;;;;25.61;36.81;97988.25;8383297;28;20235;-84
2021/08/10 17:13:30;;;;;;;5.07;3.63;;;;;;;25.56;36.80;97988.75;8383184;28;20380;-85
2021/08/10 17:17:33;;;;;;;6.70;3.67;;;;;;;25.51;37.30;97985.75;8382841;28;20206;-84
2021/08/10 17:21:38;;;;;;;4.73;3.37;;;;;;;25.44;37.76;97995.38;8382993;28;20243;-84
2021/08/10 17:25:43;;;;;;;4.97;3.37;;;;;;;25.39;38.07;97985.25;8382907;28;20387;-84
2021/08/10 17:29:46;;;;;;;5.13;3.40;;;;;;;25.39;38.95;97987.06;8382843;28;20224;-84
2021/08/10 17:33:59;;;;;;;6.17;3.40;;;;;;;25.30;38.97;97978.25;8388268;28;20271;-84
2021/08/10 17:38:05;;;;;;;6.57;2.97;;;;;;;25.23;39.20;97982.56;8389515;28;20229;-83
2021/08/10 17:42:08;;;;;;;5.20;3.60;;;;;;;25.20;39.81;97969.59;8389404;28;20293;-85
2021/08/10 17:46:11;;;;;;;5.57;3.60;;;;;;;25.13;39.58;97970.22;8389447;28;20202;-84
2021/08/10 17:50:15;;;;;;;8.30;3.30;;;;;;;25.05;40.42;97978.13;8389191;28;20237;-84
2021/08/10 17:54:19;;;;;;;5.93;3.20;;;;;;;24.95;40.49;97977.44;8389133;28;20209;-84
2021/08/10 17:58:22;;;;;;;4.60;3.47;;;;;;;24.84;41.29;97975.88;8388931;28;20200;-84
2021/08/10 18:02:25;;;;;;;6.17;3.20;;;;;;;24.84;41.77;97981.19;8388794;28;20211;-85
2021/08/10 18:06:29;;;;;;;5.13;3.67;;;;;;;24.77;42.00;97980.19;8388777;28;20416;-84
2021/08/10 18:10:33;;;;;;;5.47;3.40;;;;;;;24.65;41.91;97976.13;8388723;28;20295;-83
2021/08/10 18:14:36;;;;;;;4.07;3.30;;;;;;;24.64;43.23;97983.25;8388469;28;20377;-83
2021/08/10 18:18:39;;;;;;;4.60;3.70;;;;;;;24.55;42.61;97973.59;8388372;28;20208;-84
2021/08/10 18:22:42;;;;;;;5.70;3.90;;;;;;;24.50;42.02;97975.84;8388182;28;20213;-84
2021/08/10 18:26:46;;;;;;;7.77;3.77;;;;;;;24.39;42.30;97982.25;8388088;28;20200;-84
2021/08/10 18:30:49;;;;;;;5.70;3.37;;;;;;;24.32;42.57;97984.66;8388364;28;20228;-84
2021/08/10 18:34:52;;;;;;;4.90;3.50;;;;;;;24.26;43.28;97987.94;8387723;28;20199;-84
2021/08/10 18:38:55;;;;;;;7.60;3.20;;;;;;;24.23;43.11;97990.06;8388087;28;20200;-84
2021/08/10 18:43:02;;;;;;;7.23;3.37;;;;;;;24.16;43.01;97998.59;8386521;28;20397;-84
2021/08/10 18:47:05;;;;;;;5.27;3.60;;;;;;;24.11;43.57;98003.53;8387911;28;20215;-84
2021/08/10 18:51:12;;;;;;;7.50;3.57;;;;;;;24.00;43.66;98014.34;8387288;28;20231;-84
2021/08/10 18:55:15;;;;;;;5.43;3.67;;;;;;;23.95;43.88;98019.25;8387153;28;20200;-84
2021/08/10 18:59:19;;;;;;;4.20;3.80;;;;;;;23.91;43.67;98028.47;8387008;28;20200;-84
2021/08/10 19:03:22;;;;;;;8.37;3.37;;;;;;;23.81;44.15;98033.81;8386997;28;20217;-84
2021/08/10 19:07:25;;;;;;;7.73;3.70;;;;;;;23.80;44.51;98040.09;8387531;28;20212;-84
2021/08/10 19:11:28;;;;;;;5.33;3.80;;;;;;;23.73;44.58;98042.47;8386683;28;20535;-84
2021/08/10 19:15:32;;;;;;;7.43;4.13;;;;;;;23.64;44.36;98047.81;8386771;28;20203;-84